sensor_id;sensor_type;location;lat;lon;timestamp;pressure;altitude;pressure_sealevel;temperature;humidity
45357;BME280;31092;51.924;21.448;2023-02-13T00:00:23;101983.41;;;1.63;100.00
45357;BME280;31092;51.924;21.448;2023-02-13T00:02:49;101969.47;;;1.58;100.00
45357;BME280;31092;51.924;21.448;2023-02-13T00:05:14;102002.56;;;1.72;100.00
45357;BME280;31092;51.924;21.448;2023-02-13T00:07:40;101885.47;;;1.15;100.00
45357;BME280;31092;51.924;21.448;2023-02-13T00:10:06;101992.72;;;1.74;100.00
45357;BME280;31092;51.924;21.448;2023-02-13T00:12:32;101887.19;;;1.16;100.00
45357;BME280;31092;51.924;21.448;2023-02-13T00:14:57;101993.53;;;1.76;100.00
45357;BME280;31092;51.924;21.448;2023-02-13T00:17:24;101899.25;;;1.25;100.00
45357;BME280;31092;51.924;21.448;2023-02-13T00:19:50;101987.78;;;1.85;100.00
45357;BME280;31092;51.924;21.448;2023-02-13T00:22:16;101968.75;;;1.75;100.00
45357;BME280;31092;51.924;21.448;2023-02-13T00:24:42;101994.44;;;1.95;100.00
45357;BME280;31092;51.924;21.448;2023-02-13T00:27:08;101911.84;;;1.40;100.00
45357;BME280;31092;51.924;21.448;2023-02-13T00:29:33;102000.78;;;1.92;100.00
45357;BME280;31092;51.924;21.448;2023-02-13T00:31:59;101923.81;;;1.50;100.00
45357;BME280;31092;51.924;21.448;2023-02-13T00:34:26;101913.34;;;1.46;100.00
45357;BME280;31092;51.924;21.448;2023-02-13T00:36:52;101900.38;;;1.39;100.00
45357;BME280;31092;51.924;21.448;2023-02-13T00:39:17;101970.81;;;1.89;100.00
45357;BME280;31092;51.924;21.448;2023-02-13T00:41:43;101977.63;;;1.95;100.00
45357;BME280;31092;51.924;21.448;2023-02-13T00:44:09;101966.53;;;1.85;100.00
45357;BME280;31092;51.924;21.448;2023-02-13T00:46:35;101911.78;;;1.62;100.00
45357;BME280;31092;51.924;21.448;2023-02-13T00:49:01;101923.72;;;1.72;100.00
45357;BME280;31092;51.924;21.448;2023-02-13T00:51:27;101980.81;;;2.03;100.00
45357;BME280;31092;51.924;21.448;2023-02-13T00:53:52;101879.56;;;1.49;100.00
45357;BME280;31092;51.924;21.448;2023-02-13T00:56:18;101960.75;;;1.96;100.00
45357;BME280;31092;51.924;21.448;2023-02-13T00:58:43;101965.88;;;2.00;100.00
45357;BME280;31092;51.924;21.448;2023-02-13T01:01:09;101954.56;;;1.95;100.00
45357;BME280;31092;51.924;21.448;2023-02-13T01:03:34;101951.06;;;1.95;100.00
45357;BME280;31092;51.924;21.448;2023-02-13T01:06:00;101915.66;;;1.74;100.00
45357;BME280;31092;51.924;21.448;2023-02-13T01:08:25;101864.34;;;1.53;100.00
45357;BME280;31092;51.924;21.448;2023-02-13T01:10:53;101886.88;;;1.64;100.00
45357;BME280;31092;51.924;21.448;2023-02-13T01:13:19;101950.84;;;1.99;100.00
45357;BME280;31092;51.924;21.448;2023-02-13T01:15:45;101947.78;;;2.08;100.00
45357;BME280;31092;51.924;21.448;2023-02-13T01:18:16;101907.09;;;1.87;100.00
45357;BME280;31092;51.924;21.448;2023-02-13T01:20:42;101890.56;;;1.81;100.00
45357;BME280;31092;51.924;21.448;2023-02-13T01:23:08;101948.38;;;2.15;100.00
45357;BME280;31092;51.924;21.448;2023-02-13T01:25:34;101858.78;;;1.59;100.00
45357;BME280;31092;51.924;21.448;2023-02-13T01:28:03;101962.16;;;2.23;100.00
45357;BME280;31092;51.924;21.448;2023-02-13T01:30:29;101857.78;;;1.61;100.00
45357;BME280;31092;51.924;21.448;2023-02-13T01:32:54;101848.28;;;1.56;100.00
45357;BME280;31092;51.924;21.448;2023-02-13T01:35:20;101940.53;;;2.12;100.00
45357;BME280;31092;51.924;21.448;2023-02-13T01:37:45;101951.25;;;2.10;100.00
45357;BME280;31092;51.924;21.448;2023-02-13T01:40:12;101987.53;;;2.30;100.00
45357;BME280;31092;51.924;21.448;2023-02-13T01:42:38;101945.84;;;2.12;100.00
45357;BME280;31092;51.924;21.448;2023-02-13T01:45:17;101985.69;;;2.32;100.00
45357;BME280;31092;51.924;21.448;2023-02-13T01:47:49;101870.50;;;1.74;100.00
45357;BME280;31092;51.924;21.448;2023-02-13T01:50:36;101833.44;;;1.52;100.00
45357;BME280;31092;51.924;21.448;2023-02-13T01:53:11;101925.44;;;2.12;100.00
45357;BME280;31092;51.924;21.448;2023-02-13T01:58:35;101958.66;;;2.42;100.00
45357;BME280;31092;51.924;21.448;2023-02-13T02:01:01;101931.84;;;2.27;100.00
45357;BME280;31092;51.924;21.448;2023-02-13T02:03:40;101935.44;;;2.26;100.00
45357;BME280;31092;51.924;21.448;2023-02-13T02:06:11;101862.72;;;1.89;100.00
45357;BME280;31092;51.924;21.448;2023-02-13T02:08:38;101860.78;;;1.93;100.00
45357;BME280;31092;51.924;21.448;2023-02-13T02:11:10;101900.38;;;2.18;100.00
45357;BME280;31092;51.924;21.448;2023-02-13T02:13:40;101945.94;;;2.48;100.00
45357;BME280;31092;51.924;21.448;2023-02-13T02:16:06;101860.47;;;1.99;100.00
45357;BME280;31092;51.924;21.448;2023-02-13T02:18:31;101859.34;;;2.05;100.00
45357;BME280;31092;51.924;21.448;2023-02-13T02:21:22;101939.38;;;2.55;100.00
45357;BME280;31092;51.924;21.448;2023-02-13T02:27:00;101942.50;;;2.65;100.00
45357;BME280;31092;51.924;21.448;2023-02-13T02:33:08;101825.72;;;2.04;100.00
45357;BME280;31092;51.924;21.448;2023-02-13T02:41:08;101848.69;;;2.24;100.00
45357;BME280;31092;51.924;21.448;2023-02-13T02:44:09;101933.75;;;2.80;100.00
45357;BME280;31092;51.924;21.448;2023-02-13T02:47:07;101800.06;;;2.03;100.00
45357;BME280;31092;51.924;21.448;2023-02-13T02:49:50;101848.56;;;2.27;100.00
45357;BME280;31092;51.924;21.448;2023-02-13T02:52:56;101939.94;;;2.81;100.00
45357;BME280;31092;51.924;21.448;2023-02-13T02:58:08;101931.25;;;2.77;100.00
45357;BME280;31092;51.924;21.448;2023-02-13T03:00:56;101915.34;;;2.76;100.00
45357;BME280;31092;51.924;21.448;2023-02-13T03:03:40;101842.16;;;2.31;100.00
45357;BME280;31092;51.924;21.448;2023-02-13T03:06:56;101925.34;;;2.90;100.00
45357;BME280;31092;51.924;21.448;2023-02-13T03:09:38;101931.44;;;2.92;100.00
45357;BME280;31092;51.924;21.448;2023-02-13T03:12:28;101925.63;;;2.83;100.00
45357;BME280;31092;51.924;21.448;2023-02-13T03:15:13;101837.41;;;2.37;100.00
45357;BME280;31092;51.924;21.448;2023-02-13T03:17:39;101833.97;;;2.35;100.00
45357;BME280;31092;51.924;21.448;2023-02-13T03:20:44;101931.06;;;2.99;100.00
45357;BME280;31092;51.924;21.448;2023-02-13T03:35:45;101951.66;;;3.13;100.00
45357;BME280;31092;51.924;21.448;2023-02-13T03:38:47;101937.44;;;3.14;100.00
45357;BME280;31092;51.924;21.448;2023-02-13T03:41:26;101857.06;;;2.71;100.00
45357;BME280;31092;51.924;21.448;2023-02-13T03:44:12;101843.19;;;2.64;100.00
45357;BME280;31092;51.924;21.448;2023-02-13T03:46:44;101858.63;;;2.75;100.00
45357;BME280;31092;51.924;21.448;2023-02-13T03:49:19;101847.41;;;2.69;100.00
45357;BME280;31092;51.924;21.448;2023-02-13T03:55:00;101930.78;;;3.23;100.00
45357;BME280;31092;51.924;21.448;2023-02-13T03:57:49;101850.50;;;2.78;100.00
45357;BME280;31092;51.924;21.448;2023-02-13T04:00:40;101846.25;;;2.74;100.00
45357;BME280;31092;51.924;21.448;2023-02-13T04:03:14;101922.63;;;3.26;100.00
45357;BME280;31092;51.924;21.448;2023-02-13T04:05:47;101904.78;;;3.10;100.00
45357;BME280;31092;51.924;21.448;2023-02-13T04:08:14;101905.41;;;3.16;100.00
45357;BME280;31092;51.924;21.448;2023-02-13T04:10:48;101838.28;;;2.74;100.00
45357;BME280;31092;51.924;21.448;2023-02-13T04:13:32;101888.81;;;3.10;100.00
45357;BME280;31092;51.924;21.448;2023-02-13T04:16:09;101822.38;;;2.73;100.00
45357;BME280;31092;51.924;21.448;2023-02-13T04:18:37;101831.06;;;2.76;100.00
45357;BME280;31092;51.924;21.448;2023-02-13T04:21:05;101900.78;;;3.19;100.00
45357;BME280;31092;51.924;21.448;2023-02-13T04:23:31;101826.69;;;2.75;100.00
45357;BME280;31092;51.924;21.448;2023-02-13T04:25:59;101894.53;;;3.20;100.00
45357;BME280;31092;51.924;21.448;2023-02-13T04:28:26;101904.16;;;3.23;100.00
45357;BME280;31092;51.924;21.448;2023-02-13T04:30:52;101863.44;;;3.03;100.00
45357;BME280;31092;51.924;21.448;2023-02-13T04:33:17;101822.06;;;2.79;100.00
45357;BME280;31092;51.924;21.448;2023-02-13T04:35:43;101894.03;;;3.29;100.00
45357;BME280;31092;51.924;21.448;2023-02-13T04:38:08;101895.44;;;3.19;100.00
45357;BME280;31092;51.924;21.448;2023-02-13T04:40:34;101788.31;;;2.62;100.00
45357;BME280;31092;51.924;21.448;2023-02-13T04:42:59;101895.84;;;3.29;100.00
45357;BME280;31092;51.924;21.448;2023-02-13T04:45:25;101823.41;;;2.87;100.00
45357;BME280;31092;51.924;21.448;2023-02-13T04:47:52;101795.06;;;2.69;100.00
45357;BME280;31092;51.924;21.448;2023-02-13T04:50:19;101813.94;;;2.82;100.00
45357;BME280;31092;51.924;21.448;2023-02-13T04:52:45;101877.66;;;3.20;100.00
45357;BME280;31092;51.924;21.448;2023-02-13T04:55:10;101892.34;;;3.28;100.00
45357;BME280;31092;51.924;21.448;2023-02-13T04:57:36;101805.25;;;2.78;100.00
45357;BME280;31092;51.924;21.448;2023-02-13T05:00:04;101808.38;;;2.69;100.00
45357;BME280;31092;51.924;21.448;2023-02-13T05:02:30;101830.63;;;2.85;100.00
45357;BME280;31092;51.924;21.448;2023-02-13T05:04:55;101813.44;;;2.74;100.00
45357;BME280;31092;51.924;21.448;2023-02-13T05:07:21;101902.59;;;3.19;100.00
45357;BME280;31092;51.924;21.448;2023-02-13T05:09:46;101899.53;;;3.26;100.00
45357;BME280;31092;51.924;21.448;2023-02-13T05:12:12;101808.50;;;2.66;100.00
45357;BME280;31092;51.924;21.448;2023-02-13T05:14:37;101879.06;;;3.09;100.00
45357;BME280;31092;51.924;21.448;2023-02-13T05:17:03;101776.38;;;2.53;100.00
45357;BME280;31092;51.924;21.448;2023-02-13T05:19:28;101906.41;;;3.30;100.00
45357;BME280;31092;51.924;21.448;2023-02-13T05:21:54;101878.84;;;3.14;100.00
45357;BME280;31092;51.924;21.448;2023-02-13T05:24:38;101925.41;;;3.42;100.00
45357;BME280;31092;51.924;21.448;2023-02-13T05:27:03;101878.56;;;3.20;100.00
45357;BME280;31092;51.924;21.448;2023-02-13T05:29:29;101868.50;;;3.08;100.00
45357;BME280;31092;51.924;21.448;2023-02-13T05:31:55;101918.31;;;3.41;100.00
45357;BME280;31092;51.924;21.448;2023-02-13T05:34:23;101902.50;;;3.38;100.00
45357;BME280;31092;51.924;21.448;2023-02-13T05:36:49;101813.84;;;2.83;100.00
45357;BME280;31092;51.924;21.448;2023-02-13T05:39:15;101830.06;;;2.96;100.00
45357;BME280;31092;51.924;21.448;2023-02-13T05:41:42;101899.84;;;3.38;100.00
45357;BME280;31092;51.924;21.448;2023-02-13T05:44:08;101912.69;;;3.47;100.00
45357;BME280;31092;51.924;21.448;2023-02-13T05:46:35;101889.44;;;3.33;100.00
45357;BME280;31092;51.924;21.448;2023-02-13T05:49:02;101834.53;;;2.96;100.00
45357;BME280;31092;51.924;21.448;2023-02-13T05:51:28;101858.72;;;3.08;100.00
45357;BME280;31092;51.924;21.448;2023-02-13T05:53:54;101933.44;;;3.40;100.00
45357;BME280;31092;51.924;21.448;2023-02-13T05:56:20;101805.41;;;2.75;100.00
45357;BME280;31092;51.924;21.448;2023-02-13T05:58:45;101805.41;;;2.75;100.00
45357;BME280;31092;51.924;21.448;2023-02-13T06:01:11;101939.09;;;3.51;100.00
45357;BME280;31092;51.924;21.448;2023-02-13T06:03:37;101926.97;;;3.46;100.00
45357;BME280;31092;51.924;21.448;2023-02-13T06:06:05;101826.00;;;2.89;100.00
45357;BME280;31092;51.924;21.448;2023-02-13T06:08:30;101851.13;;;3.01;100.00
45357;BME280;31092;51.924;21.448;2023-02-13T06:10:56;101917.63;;;3.37;100.00
45357;BME280;31092;51.924;21.448;2023-02-13T06:13:21;101852.00;;;3.01;100.00
45357;BME280;31092;51.924;21.448;2023-02-13T06:15:47;101872.75;;;3.12;100.00
45357;BME280;31092;51.924;21.448;2023-02-13T06:18:12;101854.66;;;3.01;100.00
45357;BME280;31092;51.924;21.448;2023-02-13T06:20:38;101840.16;;;2.90;100.00
45357;BME280;31092;51.924;21.448;2023-02-13T06:23:04;101827.16;;;2.83;100.00
45357;BME280;31092;51.924;21.448;2023-02-13T06:25:29;101894.13;;;3.28;100.00
45357;BME280;31092;51.924;21.448;2023-02-13T06:27:55;101915.59;;;3.42;100.00
45357;BME280;31092;51.924;21.448;2023-02-13T06:30:20;101919.13;;;3.43;100.00
45357;BME280;31092;51.924;21.448;2023-02-13T06:32:47;101937.91;;;3.57;100.00
45357;BME280;31092;51.924;21.448;2023-02-13T06:35:14;101862.09;;;3.12;100.00
45357;BME280;31092;51.924;21.448;2023-02-13T06:37:40;101936.03;;;3.59;100.00
45357;BME280;31092;51.924;21.448;2023-02-13T06:40:09;101873.38;;;3.17;100.00
45357;BME280;31092;51.924;21.448;2023-02-13T06:42:35;101880.28;;;3.21;100.00
45357;BME280;31092;51.924;21.448;2023-02-13T06:45:01;101865.53;;;3.14;100.00
45357;BME280;31092;51.924;21.448;2023-02-13T06:47:26;101890.06;;;3.38;100.00
45357;BME280;31092;51.924;21.448;2023-02-13T06:49:52;101875.34;;;3.31;100.00
45357;BME280;31092;51.924;21.448;2023-02-13T06:52:17;101926.31;;;3.58;100.00
45357;BME280;31092;51.924;21.448;2023-02-13T06:54:43;101941.75;;;3.69;100.00
45357;BME280;31092;51.924;21.448;2023-02-13T06:57:08;101848.38;;;3.20;100.00
45357;BME280;31092;51.924;21.448;2023-02-13T06:59:34;101934.38;;;3.74;100.00
45357;BME280;31092;51.924;21.448;2023-02-13T07:01:59;101908.69;;;3.55;100.00
45357;BME280;31092;51.924;21.448;2023-02-13T07:04:26;101910.97;;;3.63;100.00
45357;BME280;31092;51.924;21.448;2023-02-13T07:06:55;101855.81;;;3.30;100.00
45357;BME280;31092;51.924;21.448;2023-02-13T07:09:22;101929.66;;;3.79;100.00
45357;BME280;31092;51.924;21.448;2023-02-13T07:11:48;101930.47;;;3.81;100.00
45357;BME280;31092;51.924;21.448;2023-02-13T07:14:13;101843.13;;;3.35;100.00
45357;BME280;31092;51.924;21.448;2023-02-13T07:16:39;101920.88;;;3.77;100.00
45357;BME280;31092;51.924;21.448;2023-02-13T07:19:04;101932.06;;;3.83;100.00
45357;BME280;31092;51.924;21.448;2023-02-13T07:21:30;101875.25;;;3.50;100.00
45357;BME280;31092;51.924;21.448;2023-02-13T07:23:55;101929.56;;;3.80;100.00
45357;BME280;31092;51.924;21.448;2023-02-13T07:26:20;101866.44;;;3.48;100.00
45357;BME280;31092;51.924;21.448;2023-02-13T07:28:46;101847.34;;;3.40;100.00
45357;BME280;31092;51.924;21.448;2023-02-13T07:31:11;101869.59;;;3.56;100.00
45357;BME280;31092;51.924;21.448;2023-02-13T07:33:37;101900.03;;;3.85;100.00
45357;BME280;31092;51.924;21.448;2023-02-13T07:36:03;101929.31;;;4.02;100.00
45357;BME280;31092;51.924;21.448;2023-02-13T07:38:32;101922.09;;;4.04;100.00
45357;BME280;31092;51.924;21.448;2023-02-13T07:40:58;101921.59;;;4.14;100.00
45357;BME280;31092;51.924;21.448;2023-02-13T07:43:24;101836.63;;;3.74;100.00
45357;BME280;31092;51.924;21.448;2023-02-13T07:45:50;101851.88;;;3.88;100.00
45357;BME280;31092;51.924;21.448;2023-02-13T07:48:21;101855.25;;;3.92;100.00
45357;BME280;31092;51.924;21.448;2023-02-13T07:50:46;101908.19;;;4.31;100.00
45357;BME280;31092;51.924;21.448;2023-02-13T07:53:12;101902.59;;;4.36;100.00
45357;BME280;31092;51.924;21.448;2023-02-13T07:55:37;101912.56;;;4.48;100.00
45357;BME280;31092;51.924;21.448;2023-02-13T07:58:03;101830.91;;;4.14;100.00
45357;BME280;31092;51.924;21.448;2023-02-13T08:00:29;101882.38;;;4.47;100.00
45357;BME280;31092;51.924;21.448;2023-02-13T08:02:58;101836.16;;;4.15;100.00
45357;BME280;31092;51.924;21.448;2023-02-13T08:05:24;101912.88;;;4.59;100.00
45357;BME280;31092;51.924;21.448;2023-02-13T08:07:49;101930.00;;;4.71;100.00
45357;BME280;31092;51.924;21.448;2023-02-13T08:10:15;101845.38;;;4.25;100.00
45357;BME280;31092;51.924;21.448;2023-02-13T08:12:59;101824.56;;;4.32;100.00
45357;BME280;31092;51.924;21.448;2023-02-13T08:15:25;101812.16;;;4.31;100.00
45357;BME280;31092;51.924;21.448;2023-02-13T08:17:50;101820.16;;;4.47;100.00
45357;BME280;31092;51.924;21.448;2023-02-13T08:20:16;101827.81;;;4.53;100.00
45357;BME280;31092;51.924;21.448;2023-02-13T08:22:41;101801.13;;;4.37;100.00
45357;BME280;31092;51.924;21.448;2023-02-13T08:25:07;101820.75;;;4.52;100.00
45357;BME280;31092;51.924;21.448;2023-02-13T08:27:33;101848.19;;;4.70;100.00
45357;BME280;31092;51.924;21.448;2023-02-13T08:29:58;101824.34;;;4.51;100.00
45357;BME280;31092;51.924;21.448;2023-02-13T08:32:24;101815.56;;;4.65;100.00
45357;BME280;31092;51.924;21.448;2023-02-13T08:34:50;101859.22;;;4.94;100.00
45357;BME280;31092;51.924;21.448;2023-02-13T08:37:16;101907.22;;;5.25;100.00
45357;BME280;31092;51.924;21.448;2023-02-13T08:39:42;101911.53;;;5.28;100.00
45357;BME280;31092;51.924;21.448;2023-02-13T08:42:08;101786.31;;;4.63;100.00
45357;BME280;31092;51.924;21.448;2023-02-13T08:44:34;101876.50;;;5.18;100.00
45357;BME280;31092;51.924;21.448;2023-02-13T08:47:00;101833.66;;;4.90;100.00
45357;BME280;31092;51.924;21.448;2023-02-13T08:49:31;101786.53;;;4.59;100.00
45357;BME280;31092;51.924;21.448;2023-02-13T08:51:57;101906.97;;;5.30;100.00
45357;BME280;31092;51.924;21.448;2023-02-13T08:54:23;101836.91;;;4.80;100.00
45357;BME280;31092;51.924;21.448;2023-02-13T08:56:49;101853.31;;;4.89;100.00
45357;BME280;31092;51.924;21.448;2023-02-13T08:59:14;101814.41;;;4.69;100.00
45357;BME280;31092;51.924;21.448;2023-02-13T09:01:40;101811.59;;;4.72;100.00
45357;BME280;31092;51.924;21.448;2023-02-13T09:04:06;101823.91;;;4.74;100.00
45357;BME280;31092;51.924;21.448;2023-02-13T09:06:31;101853.53;;;5.00;100.00
45357;BME280;31092;51.924;21.448;2023-02-13T09:08:57;101830.94;;;4.91;100.00
45357;BME280;31092;51.924;21.448;2023-02-13T09:11:22;101888.84;;;5.35;100.00
45357;BME280;31092;51.924;21.448;2023-02-13T09:13:48;101833.72;;;5.04;100.00
45357;BME280;31092;51.924;21.448;2023-02-13T09:16:15;101901.22;;;5.66;100.00
45357;BME280;31092;51.924;21.448;2023-02-13T09:18:40;101846.78;;;5.39;100.00
45357;BME280;31092;51.924;21.448;2023-02-13T09:21:08;101909.34;;;5.79;100.00
45357;BME280;31092;51.924;21.448;2023-02-13T09:23:38;101814.88;;;5.36;100.00
45357;BME280;31092;51.924;21.448;2023-02-13T09:26:07;101802.13;;;5.41;100.00
45357;BME280;31092;51.924;21.448;2023-02-13T09:28:34;101878.72;;;5.99;100.00
45357;BME280;31092;51.924;21.448;2023-02-13T09:31:07;101807.94;;;5.62;100.00
45357;BME280;31092;51.924;21.448;2023-02-13T09:33:33;101846.81;;;5.96;100.00
45357;BME280;31092;51.924;21.448;2023-02-13T09:36:13;101893.94;;;6.54;100.00
45357;BME280;31092;51.924;21.448;2023-02-13T09:38:40;101776.09;;;6.14;100.00
45357;BME280;31092;51.924;21.448;2023-02-13T09:41:19;101872.13;;;6.87;100.00
45357;BME280;31092;51.924;21.448;2023-02-13T09:44:00;101841.06;;;6.85;100.00
45357;BME280;31092;51.924;21.448;2023-02-13T09:46:35;101794.81;;;6.68;100.00
45357;BME280;31092;51.924;21.448;2023-02-13T09:49:12;101820.81;;;6.54;100.00
45357;BME280;31092;51.924;21.448;2023-02-13T09:51:44;101862.13;;;6.50;100.00
45357;BME280;31092;51.924;21.448;2023-02-13T09:54:14;101874.38;;;6.39;100.00
45357;BME280;31092;51.924;21.448;2023-02-13T09:56:45;101891.41;;;6.38;100.00
45357;BME280;31092;51.924;21.448;2023-02-13T10:02:19;101786.44;;;5.78;100.00
45357;BME280;31092;51.924;21.448;2023-02-13T10:04:55;101822.25;;;6.04;100.00
45357;BME280;31092;51.924;21.448;2023-02-13T10:10:37;101886.31;;;6.48;100.00
45357;BME280;31092;51.924;21.448;2023-02-13T10:13:34;101888.41;;;6.43;100.00
45357;BME280;31092;51.924;21.448;2023-02-13T10:16:15;101877.38;;;6.20;100.00
45357;BME280;31092;51.924;21.448;2023-02-13T10:18:44;101895.06;;;6.23;100.00
45357;BME280;31092;51.924;21.448;2023-02-13T10:21:13;101884.94;;;6.14;100.00
45357;BME280;31092;51.924;21.448;2023-02-13T10:26:20;101807.00;;;5.48;100.00
45357;BME280;31092;51.924;21.448;2023-02-13T10:29:04;101834.09;;;5.57;100.00
45357;BME280;31092;51.924;21.448;2023-02-13T10:31:50;101827.13;;;5.54;100.00
45357;BME280;31092;51.924;21.448;2023-02-13T10:34:21;101811.75;;;5.43;100.00
45357;BME280;31092;51.924;21.448;2023-02-13T10:36:49;101875.00;;;5.87;100.00
45357;BME280;31092;51.924;21.448;2023-02-13T10:39:24;101889.81;;;5.93;100.00
45357;BME280;31092;51.924;21.448;2023-02-13T10:44:47;101896.69;;;5.97;100.00
45357;BME280;31092;51.924;21.448;2023-02-13T10:52:56;101810.34;;;5.66;100.00
45357;BME280;31092;51.924;21.448;2023-02-13T11:03:26;101824.06;;;5.74;100.00
45357;BME280;31092;51.924;21.448;2023-02-13T11:05:52;101880.72;;;6.10;100.00
45357;BME280;31092;51.924;21.448;2023-02-13T11:10:49;101871.84;;;6.23;100.00
45357;BME280;31092;51.924;21.448;2023-02-13T11:13:23;101832.56;;;6.10;100.00
45357;BME280;31092;51.924;21.448;2023-02-13T11:16:07;101784.06;;;5.87;100.00
45357;BME280;31092;51.924;21.448;2023-02-13T11:18:39;101847.16;;;6.18;100.00
45357;BME280;31092;51.924;21.448;2023-02-13T11:21:07;101862.00;;;6.24;100.00
45357;BME280;31092;51.924;21.448;2023-02-13T11:23:44;101854.34;;;6.18;100.00
45357;BME280;31092;51.924;21.448;2023-02-13T11:26:20;101780.06;;;5.66;100.00
45357;BME280;31092;51.924;21.448;2023-02-13T11:28:55;101819.41;;;5.78;100.00
45357;BME280;31092;51.924;21.448;2023-02-13T11:31:29;101829.22;;;5.78;100.00
45357;BME280;31092;51.924;21.448;2023-02-13T11:33:56;101754.88;;;5.27;100.00
45357;BME280;31092;51.924;21.448;2023-02-13T11:39:04;101862.97;;;5.80;100.00
45357;BME280;31092;51.924;21.448;2023-02-13T11:41:36;101840.91;;;5.76;100.00
45357;BME280;31092;51.924;21.448;2023-02-13T11:44:03;101767.28;;;5.42;100.00
45357;BME280;31092;51.924;21.448;2023-02-13T11:46:50;101854.19;;;5.92;100.00
45357;BME280;31092;51.924;21.448;2023-02-13T11:49:19;101762.31;;;5.36;100.00
45357;BME280;31092;51.924;21.448;2023-02-13T11:51:50;101842.41;;;5.81;100.00
45357;BME280;31092;51.924;21.448;2023-02-13T11:57:08;101828.56;;;5.74;100.00
45357;BME280;31092;51.924;21.448;2023-02-13T11:59:42;101758.28;;;5.29;100.00
45357;BME280;31092;51.924;21.448;2023-02-13T12:02:44;101833.53;;;5.66;100.00
45357;BME280;31092;51.924;21.448;2023-02-13T12:05:20;101749.53;;;5.13;100.00
45357;BME280;31092;51.924;21.448;2023-02-13T12:07:46;101745.28;;;5.09;100.00
45357;BME280;31092;51.924;21.448;2023-02-13T12:10:21;101743.56;;;5.08;100.00
45357;BME280;31092;51.924;21.448;2023-02-13T12:13:14;101838.28;;;5.61;100.00
45357;BME280;31092;51.924;21.448;2023-02-13T12:15:46;101736.16;;;4.98;100.00
45357;BME280;31092;51.924;21.448;2023-02-13T12:18:22;101787.78;;;5.27;100.00
45357;BME280;31092;51.924;21.448;2023-02-13T12:21:04;101796.78;;;5.41;100.00
45357;BME280;31092;51.924;21.448;2023-02-13T12:31:52;101804.59;;;5.72;100.00
45357;BME280;31092;51.924;21.448;2023-02-13T12:34:50;101808.13;;;5.73;100.00
45357;BME280;31092;51.924;21.448;2023-02-13T12:39:59;101785.88;;;5.72;100.00
45357;BME280;31092;51.924;21.448;2023-02-13T12:45:20;101798.19;;;5.61;100.00
45357;BME280;31092;51.924;21.448;2023-02-13T12:56:14;101789.13;;;5.49;100.00
45357;BME280;31092;51.924;21.448;2023-02-13T12:59:07;101776.75;;;5.48;100.00
45357;BME280;31092;51.924;21.448;2023-02-13T13:09:31;101654.69;;;5.06;100.00
45357;BME280;31092;51.924;21.448;2023-02-13T13:12:23;101756.88;;;5.66;100.00
45357;BME280;31092;51.924;21.448;2023-02-13T13:17:28;101756.88;;;5.66;100.00
45357;BME280;31092;51.924;21.448;2023-02-13T13:28:12;101741.75;;;5.80;100.00
45357;BME280;31092;51.924;21.448;2023-02-13T13:30:41;101751.59;;;5.79;100.00
45357;BME280;31092;51.924;21.448;2023-02-13T13:33:17;101753.50;;;5.77;100.00
45357;BME280;31092;51.924;21.448;2023-02-13T13:38:26;101653.81;;;5.34;100.00
45357;BME280;31092;51.924;21.448;2023-02-13T13:49:50;101591.16;;;4.96;100.00
45357;BME280;31092;51.924;21.448;2023-02-13T13:52:26;101637.88;;;5.18;100.00
45357;BME280;31092;51.924;21.448;2023-02-13T13:54:53;101639.22;;;5.25;100.00
45357;BME280;31092;51.924;21.448;2023-02-13T13:57:26;101731.34;;;5.75;100.00
45357;BME280;31092;51.924;21.448;2023-02-13T14:02:46;101628.91;;;5.19;100.00
45357;BME280;31092;51.924;21.448;2023-02-13T14:07:53;101706.16;;;5.65;100.00
45357;BME280;31092;51.924;21.448;2023-02-13T14:23:37;101720.66;;;5.75;100.00
45357;BME280;31092;51.924;21.448;2023-02-13T14:26:19;101729.72;;;5.72;100.00
45357;BME280;31092;51.924;21.448;2023-02-13T14:31:34;101713.94;;;5.55;100.00
45357;BME280;31092;51.924;21.448;2023-02-13T14:34:16;101700.75;;;5.52;100.00
45357;BME280;31092;51.924;21.448;2023-02-13T14:36:57;101694.75;;;5.48;100.00
45357;BME280;31092;51.924;21.448;2023-02-13T14:39:32;101686.81;;;5.47;100.00
45357;BME280;31092;51.924;21.448;2023-02-13T14:42:01;101709.44;;;5.56;100.00
45357;BME280;31092;51.924;21.448;2023-02-13T14:44:31;101684.75;;;5.38;100.00
45357;BME280;31092;51.924;21.448;2023-02-13T14:47:20;101720.97;;;5.56;100.00
45357;BME280;31092;51.924;21.448;2023-02-13T14:49:48;101656.09;;;5.11;100.00
45357;BME280;31092;51.924;21.448;2023-02-13T14:52:18;101732.63;;;5.55;100.00
45357;BME280;31092;51.924;21.448;2023-02-13T14:54:53;101663.38;;;5.23;100.00
45357;BME280;31092;51.924;21.448;2023-02-13T14:57:51;101714.13;;;5.52;100.00
45357;BME280;31092;51.924;21.448;2023-02-13T15:00:30;101723.84;;;5.53;100.00
45357;BME280;31092;51.924;21.448;2023-02-13T15:03:03;101643.78;;;5.09;100.00
45357;BME280;31092;51.924;21.448;2023-02-13T15:05:33;101677.66;;;5.37;100.00
45357;BME280;31092;51.924;21.448;2023-02-13T15:08:13;101689.78;;;5.42;100.00
45357;BME280;31092;51.924;21.448;2023-02-13T15:10:48;101611.75;;;4.94;100.00
45357;BME280;31092;51.924;21.448;2023-02-13T15:13:34;101709.81;;;5.49;100.00
45357;BME280;31092;51.924;21.448;2023-02-13T15:16:05;101710.00;;;5.46;100.00
45357;BME280;31092;51.924;21.448;2023-02-13T15:18:37;101705.69;;;5.44;100.00